Data for 07/05/2006

Time Sea-Level Adjusted Pressure Absolute Pressure Temperature Relative Humidity Dew Point   
(mb) (inHg) (mb) (inHg) (C) (F) (%) (C) (F)
00:05 1023 30.21 852 25.16 20.9 69.6 45 8.7 47.6
00:10 1023 30.21 852 25.16 20.8 69.4 45 8.5 47.4
00:15 1023 30.21 852 25.16 20.7 69.3 45 8.6 47.5
00:20 1023 30.21 852 25.16 20.7 69.2 45 8.6 47.4
00:25 1023 30.21 852 25.16 20.6 69.2 46 8.7 47.6
00:30 1022 30.18 852 25.16 20.6 69 46 8.7 47.7
00:35 1022 30.18 852 25.16 20.5 68.8 47 8.8 47.9
00:40 1022 30.18 852 25.16 20.4 68.6 47 8.8 47.8
00:45 1022 30.18 851 25.13 20.3 68.5 47 8.8 47.9
00:50 1022 30.18 851 25.13 20.2 68.4 47 8.8 47.8
00:55 1022 30.18 851 25.13 20.1 68.3 48 8.9 48
01:00 1022 30.18 851 25.13 20.2 68.3 48 8.9 48
01:05 1022 30.18 851 25.13 20 68 48 8.9 48.1
01:10 1022 30.18 851 25.13 19.8 67.7 49 9 48.3
01:15 1022 30.18 851 25.13 19.7 67.5 50 9 48.3
01:20 1022 30.18 851 25.13 19.7 67.4 50 9.2 48.6
01:25 1022 30.18 851 25.13 19.5 67.1 51 9.2 48.5
01:30 1022 30.18 851 25.13 19.5 67 51 9.1 48.4
01:35 1022 30.18 851 25.13 19.5 67 51 9.1 48.4
01:40 1022 30.18 851 25.13 19.4 67 51 9.1 48.4
01:45 1022 30.18 851 25.13 19.4 66.9 51 9 48.3
01:50 1022 30.18 851 25.13 19.4 66.8 51 9.1 48.4
01:55 1022 30.18 851 25.13 19.3 66.7 52 9.2 48.5
02:00 1022 30.18 851 25.13 19.3 66.8 51 9.1 48.4
02:05 1022 30.18 851 25.13 19.4 66.9 51 9.1 48.4
02:10 1022 30.18 851 25.13 19.3 66.8 51 9.2 48.6
02:15 1022 30.18 851 25.13 19.2 66.5 52 9.3 48.7
02:20 1022 30.18 851 25.13 19.1 66.4 52 9.2 48.5
02:25 1022 30.18 851 25.13 19.2 66.5 52 9.2 48.6
02:30 1022 30.18 851 25.13 19.1 66.4 52 9.2 48.6
02:35 1022 30.18 851 25.13 19.1 66.4 52 9.2 48.6
02:40 1022 30.18 851 25.13 19 66.3 53 9.3 48.7
02:45 1022 30.18 851 25.13 19 66.2 53 9.3 48.7
02:50 1022 30.18 851 25.13 19 66.1 53 9.3 48.8
02:55 1022 30.18 851 25.13 18.8 65.9 53 9.2 48.6
03:00 1022 30.18 851 25.13 18.8 65.8 54 9.4 48.9
03:05 1022 30.18 851 25.13 18.7 65.6 54 9.3 48.8
03:10 1022 30.18 851 25.13 18.7 65.7 54 9.2 48.6
03:15 1022 30.18 851 25.13 18.7 65.7 54 9.3 48.8
03:20 1022 30.18 851 25.13 18.6 65.6 54 9.3 48.7
03:25 1022 30.18 851 25.13 18.7 65.7 54 9.3 48.7
03:30 1022 30.18 851 25.13 18.7 65.7 54 9.2 48.6
03:35 1022 30.18 851 25.13 18.8 65.8 53 9.2 48.5
03:40 1022 30.18 851 25.13 18.7 65.7 54 9.3 48.8
03:45 1022 30.18 851 25.13 18.6 65.5 54 9.3 48.8
03:50 1022 30.18 851 25.13 18.6 65.5 54 9.2 48.6
03:55 1022 30.18 851 25.13 18.6 65.5 54 9.2 48.5
04:00 1022 30.18 851 25.13 18.7 65.6 54 9.3 48.7
04:05 1022 30.18 851 25.13 18.6 65.4 54 9.2 48.6
04:10 1022 30.18 851 25.13 18.5 65.3 54 9.2 48.6
04:15 1022 30.18 851 25.13 18.6 65.5 54 9.2 48.5
04:20 1022 30.18 851 25.13 18.6 65.5 54 9.2 48.6
04:25 1022 30.18 851 25.13 18.5 65.3 54 9.2 48.5
04:30 1022 30.18 851 25.13 18.5 65.3 54 9.2 48.6
04:35 1022 30.18 851 25.13 18.5 65.2 54 9.2 48.6
04:40 1022 30.18 851 25.13 18.4 65.2 54 9.2 48.5
04:45 1022 30.18 851 25.13 18.4 65.1 55 9.2 48.6
04:50 1022 30.18 851 25.13 18.4 65.1 55 9.3 48.8
04:55 1022 30.18 851 25.13 18.3 64.9 55 9.1 48.4
05:00 1022 30.18 851 25.13 18.3 65 55 9.3 48.7
05:05 1022 30.18 851 25.13 18.3 65 55 9.3 48.8
05:10 1022 30.18 851 25.13 18.2 64.7 56 9.4 48.9
05:15 1022 30.18 851 25.13 18 64.4 56 9.3 48.7
05:20 1022 30.18 851 25.13 18.1 64.5 56 9.2 48.6
05:25 1022 30.18 851 25.13 18 64.5 56 9.3 48.7
05:30 1022 30.18 851 25.13 18.2 64.7 56 9.2 48.6
05:35 1022 30.18 851 25.13 18.2 64.8 55 9.3 48.7
05:40 1022 30.18 851 25.13 18.3 64.9 55 9.3 48.8
05:45 1022 30.18 851 25.13 18.2 64.8 56 9.3 48.8
05:50 1022 30.18 851 25.13 18.1 64.6 56 9.3 48.8
05:55 1022 30.18 851 25.13 18.1 64.6 56 9.2 48.6
06:00 1022 30.18 851 25.13 18.1 64.7 56 9.3 48.8
06:05 1022 30.18 851 25.13 18.1 64.5 56 9.4 48.9
06:10 1022 30.18 851 25.13 18.1 64.5 56 9.3 48.7
06:15 1022 30.18 851 25.13 18.1 64.6 56 9.3 48.7
06:20 1022 30.18 851 25.13 18.1 64.6 56 9.4 48.9
06:25 1022 30.18 851 25.13 18 64.4 57 9.4 49
06:30 1022 30.18 851 25.13 18 64.3 57 9.4 49
06:35 1022 30.18 851 25.13 17.9 64.2 57 9.5 49
06:40 1022 30.18 851 25.13 17.9 64.2 57 9.4 49
06:45 1022 30.18 852 25.16 18 64.3 58 9.6 49.2
06:50 1022 30.18 852 25.16 18.1 64.6 57 9.5 49.2
06:55 1022 30.18 852 25.16 18.2 64.7 57 9.6 49.3
07:00 1022 30.18 852 25.16 18.2 64.7 57 9.6 49.3
07:05 1022 30.18 852 25.16 18.3 64.9 57 9.6 49.3
07:10 1023 30.21 852 25.16 18.4 65.2 56 9.6 49.3
07:15 1023 30.21 852 25.16 18.6 65.5 56 9.8 49.7
07:20 1023 30.21 852 25.16 18.5 65.3 57 10 49.9
07:25 1023 30.21 852 25.16 18.6 65.4 57 10.1 50.2
07:30 1023 30.21 852 25.16 18.5 65.3 57 10 50
07:35 1023 30.21 852 25.16 18.7 65.6 57 10 50.1
07:40 1023 30.21 852 25.16 18.9 66.1 56 10.2 50.3
07:45 1023 30.21 852 25.16 19.1 66.4 56 10.1 50.2
07:50 1023 30.21 852 25.16 19.5 67.1 54 10 50
07:55 1023 30.21 852 25.16 19.8 67.6 54 10.4 50.7
08:00 1023 30.21 852 25.16 19.7 67.4 53 10 49.9
08:05 1023 30.21 852 25.16 19.8 67.7 53 10.1 50.1
08:10 1023 30.21 852 25.16 19.9 67.8 53 10.1 50.2
08:15 1023 30.21 852 25.16 20.1 68.1 53 10.3 50.6
08:20 1023 30.21 852 25.16 20.1 68.1 54 10.5 50.8
08:25 1023 30.21 852 25.16 20.1 68.2 53 10.3 50.6
08:30 1023 30.21 852 25.16 20.3 68.5 52 10.2 50.4
08:35 1022 30.18 852 25.16 20.3 68.5 53 10.5 50.9
08:40 1022 30.18 852 25.16 20.2 68.4 54 10.7 51.3
08:45 1022 30.18 852 25.16 20.7 69.3 50 10.2 50.3
08:50 1022 30.18 852 25.16 20.7 69.2 51 10.2 50.4
08:55 1022 30.18 852 25.16 20.9 69.6 51 10.5 50.9
09:00 1022 30.18 852 25.16 21.1 70 52 10.9 51.7
09:05 1022 30.18 852 25.16 21 69.8 52 10.8 51.5
09:10 1022 30.18 851 25.13 21 69.7 53 11.2 52.2
09:15 1022 30.18 851 25.13 20.8 69.4 53 11 51.9
09:20 1022 30.18 851 25.13 20.8 69.4 51 10.4 50.8
09:25 1022 30.18 852 25.16 21.3 70.4 50 10.6 51
09:30 1022 30.18 852 25.16 21.7 71 49 10.7 51.3
09:35 1022 30.18 851 25.13 21.6 70.9 50 10.8 51.5
09:40 1022 30.18 851 25.13 21.9 71.3 50 11.1 51.9
09:45 1022 30.18 851 25.13 21.9 71.5 48 10.5 50.8
09:50 1022 30.18 851 25.13 22.2 71.9 48 10.8 51.4
09:55 1022 30.18 851 25.13 22.5 72.5 45 10 50.1
10:00 1022 30.18 851 25.13 22.8 73 45 10.4 50.6
10:05 1022 30.18 851 25.13 22.8 73 45 10.3 50.6
10:10 1022 30.18 851 25.13 23.1 73.6 43 10.1 50.1
10:15 1022 30.18 851 25.13 23.1 73.5 43 9.9 49.9
10:20 1022 30.18 851 25.13 23.4 74.1 42 10.1 50.1
10:25 1022 30.18 851 25.13 23.7 74.7 43 10.7 51.3
10:30 1022 30.18 851 25.13 24 75.2 43 10.9 51.6
10:35 1021 30.15 851 25.13 24.1 75.4 42 10.7 51.2
10:40 1021 30.15 851 25.13 23.8 74.9 44 11.1 52.1
10:45 1021 30.15 851 25.13 23.6 74.4 46 11.3 52.4
10:50 1021 30.15 850 25.1 23.9 74.9 43 10.8 51.4
10:55 1021 30.15 850 25.1 23.8 74.9 43 10.6 51.1
11:00 1021 30.15 850 25.1 24.1 75.4 42 10.6 51.1
11:05 1021 30.15 850 25.1 24.3 75.8 41 10.6 51
11:10 1021 30.15 850 25.1 24.4 76 43 11.3 52.3
11:15 1021 30.15 850 25.1 24.6 76.3 41 10.9 51.6
11:20 1021 30.15 850 25.1 25 77 41 10.9 51.7
11:25 1021 30.15 850 25.1 25.3 77.5 40 11 51.9
11:30 1021 30.15 850 25.1 24.8 76.6 40 10.6 51.1
11:35 1021 30.15 850 25.1 24.5 76.2 42 11 51.8
11:40 1021 30.15 850 25.1 24.7 76.4 42 11.3 52.3
11:45 1021 30.15 850 25.1 24.8 76.7 43 11.5 52.7
11:50 1021 30.15 850 25.1 24.7 76.4 44 11.8 53.2
11:55 1021 30.15 850 25.1 24.9 76.8 42 11.4 52.6
12:00 1021 30.15 850 25.1 25 77 43 11.7 53.1
12:05 1021 30.15 850 25.1 25.2 77.3 42 11.6 52.9
12:10 1021 30.15 850 25.1 25.1 77.1 44 12.1 53.9
12:15 1021 30.15 850 25.1 25.2 77.3 43 11.9 53.4
12:20 1021 30.15 850 25.1 25.3 77.6 43 12.2 54
12:25 1021 30.15 850 25.1 25.2 77.4 43 11.9 53.5
12:30 1021 30.15 850 25.1 25 77 45 12.3 54.1
12:35 1021 30.15 850 25.1 24.8 76.6 44 11.9 53.4
12:40 1021 30.15 850 25.1 24.8 76.6 45 12.3 54.2
12:45 1021 30.15 850 25.1 24.8 76.7 46 12.5 54.4
12:50 1021 30.15 850 25.1 24.7 76.4 47 12.7 54.8
12:55 1021 30.15 850 25.1 24.5 76.1 47 12.5 54.6
13:00 1021 30.15 850 25.1 24.6 76.2 47 12.8 55
13:05 1021 30.15 850 25.1 24.6 76.3 48 13 55.3
13:10 1021 30.15 850 25.1 24.5 76.1 49 13.1 55.6
13:15 1021 30.15 850 25.1 23.8 74.9 49 12.7 54.8
13:20 1021 30.15 850 25.1 23.4 74.1 49 12.4 54.2
13:25 1021 30.15 850 25.1 23.5 74.3 48 11.9 53.4
13:30 1021 30.15 850 25.1 23.5 74.2 49 12.4 54.2
13:35 1021 30.15 850 25.1 23.3 74 51 12.7 54.9
13:40 1021 30.15 850 25.1 23.2 73.7 53 13.3 55.9
13:45 1021 30.15 851 25.13 22.7 72.8 55 13.4 56.1
13:50 1021 30.15 851 25.13 22.4 72.3 56 13.4 56.2
13:55 1021 30.15 851 25.13 22 71.7 59 13.7 56.6
14:00 1022 30.18 851 25.13 21.6 71 60 13.6 56.5
14:05 1022 30.18 851 25.13 21.6 70.9 59 13.4 56
14:10 1022 30.18 851 25.13 21.8 71.2 61 14.1 57.4
14:15 1022 30.18 851 25.13 21.8 71.2 59 13.5 56.4
14:20 1021 30.15 851 25.13 22.2 71.9 58 13.7 56.6
14:25 1021 30.15 851 25.13 22.1 71.9 59 13.8 56.8
14:30 1021 30.15 850 25.1 21.9 71.4 59 13.5 56.4
14:35 1021 30.15 850 25.1 21.8 71.2 59 13.6 56.4
14:40 1021 30.15 850 25.1 22.2 72 58 13.6 56.5
14:45 1021 30.15 850 25.1 22.4 72.3 58 13.7 56.7
14:50 1021 30.15 850 25.1 22.2 72 57 13.4 56.1
14:55 1021 30.15 850 25.1 22.5 72.6 57 13.8 56.9
15:00 1021 30.15 850 25.1 22.3 72.2 59 13.9 57.1
15:05 1021 30.15 850 25.1 22.2 72 59 13.9 57
15:10 1021 30.15 850 25.1 22.1 71.8 58 13.6 56.4
15:15 1021 30.15 850 25.1 22 71.5 60 14 57.2
15:20 1021 30.15 850 25.1 21.9 71.3 58 13.4 56.2
15:25 1021 30.15 850 25.1 22.2 71.9 56 13.1 55.5
15:30 1021 30.15 850 25.1 22.3 72.1 55 13 55.4
15:35 1021 30.15 850 25.1 22.5 72.5 55 13.1 55.5
15:40 1021 30.15 850 25.1 22.3 72.2 55 12.9 55.1
15:45 1021 30.15 850 25.1 22.5 72.5 54 12.8 55
15:50 1021 30.15 850 25.1 23 73.4 50 12.2 54
15:55 1021 30.15 850 25.1 23.1 73.6 51 12.5 54.5
16:00 1021 30.15 850 25.1 23.2 73.7 52 12.9 55.3
16:05 1021 30.15 850 25.1 23 73.4 52 12.8 55
16:10 1021 30.15 850 25.1 23 73.4 52 12.9 55.1
16:15 1021 30.15 850 25.1 22.9 73.3 54 13.2 55.7
16:20 1021 30.15 850 25.1 22.7 72.8 51 12.3 54.2
16:25 1021 30.15 850 25.1 22.5 72.4 52 12.3 54.1
16:30 1021 30.15 850 25.1 22.6 72.6 54 12.8 55.1
16:35 1021 30.15 850 25.1 22.5 72.5 55 13.1 55.5
16:40 1021 30.15 850 25.1 22.7 72.8 54 13.1 55.5
16:45 1021 30.15 850 25.1 22.5 72.5 57 13.6 56.5
16:50 1021 30.15 850 25.1 22.3 72.1 53 12.5 54.5
16:55 1021 30.15 850 25.1 23.1 73.6 52 12.9 55.3
17:00 1021 30.15 850 25.1 23.6 74.4 51 13 55.3
17:05 1021 30.15 850 25.1 24.3 75.7 49 13 55.4
17:10 1021 30.15 850 25.1 23.5 74.4 51 13 55.4
17:15 1021 30.15 850 25.1 22.6 72.6 52 12.5 54.5
17:20 1020 30.12 850 25.1 22.1 71.7 54 12.4 54.3
17:25 1020 30.12 850 25.1 22.2 71.9 53 12.4 54.4
17:30 1020 30.12 850 25.1 21.9 71.4 55 12.6 54.7
17:35 1020 30.12 850 25.1 22.1 71.7 55 12.7 54.8
17:40 1020 30.12 849 25.07 22.1 71.8 54 12.5 54.5
17:45 1020 30.12 849 25.07 22 71.5 54 12.4 54.3
17:50 1020 30.12 849 25.07 22 71.6 55 12.7 54.9
17:55 1020 30.12 849 25.07 22.1 71.8 54 12.4 54.3
18:00 1020 30.12 849 25.07 22 71.6 54 12.5 54.4
18:05 1020 30.12 849 25.07 22 71.6 54 12.4 54.4
18:10 1020 30.12 849 25.07 21.8 71.3 55 12.5 54.6
18:15 1020 30.12 849 25.07 21.7 71 57 12.8 55.1
18:20 1020 30.12 849 25.07 21.6 70.9 58 13.1 55.7
18:25 1020 30.12 849 25.07 21.6 70.8 57 12.9 55.2
18:30 1020 30.12 849 25.07 21.4 70.6 55 12.3 54.1
18:35 1020 30.12 849 25.07 21.2 70.1 53 11.5 52.6
18:40 1020 30.12 849 25.07 20.9 69.7 53 11.2 52.1
18:45 1020 30.12 849 25.07 20.8 69.4 55 11.5 52.7
18:50 1020 30.12 849 25.07 20.6 69 55 11.4 52.5
18:55 1020 30.12 849 25.07 20.5 68.8 55 11.3 52.4
19:00 1020 30.12 849 25.07 20.3 68.6 56 11.3 52.4
19:05 1020 30.12 849 25.07 20.1 68.2 57 11.5 52.6
19:10 1020 30.12 849 25.07 20 68 57 11.2 52.2
19:15 1019 30.09 849 25.07 20 68 57 11.3 52.3
19:20 1019 30.09 849 25.07 19.7 67.5 59 11.6 52.9
19:25 1019 30.09 849 25.07 19.5 67.2 61 12 53.6
19:30 1019 30.09 849 25.07 19.4 66.8 63 12.2 53.9
19:35 1019 30.09 848 25.04 19.3 66.8 64 12.3 54.2
19:40 1019 30.09 848 25.04 19.3 66.7 64 12.5 54.4
19:45 1019 30.09 848 25.04 19.3 66.7 64 12.3 54.2
19:50 1019 30.09 848 25.04 19.2 66.6 64 12.3 54.1
19:55 1019 30.09 848 25.04 19.2 66.5 64 12.4 54.3
20:00 1019 30.09 848 25.04 19.2 66.6 64 12.3 54.1
20:05 1019 30.09 848 25.04 19.2 66.6 64 12.2 54
20:10 1019 30.09 848 25.04 19.2 66.5 63 12.1 53.8
20:15 1019 30.09 848 25.04 19.2 66.5 63 12 53.7
20:20 1019 30.09 848 25.04 19.1 66.4 64 12.1 53.8
20:25 1019 30.09 848 25.04 19 66.2 64 12.2 54
20:30 1019 30.09 848 25.04 18.9 66 65 12.2 54
20:35 1019 30.09 848 25.04 18.9 66.1 64 12.1 53.7
20:40 1019 30.09 848 25.04 19 66.1 64 12.1 53.7
20:45 1019 30.09 848 25.04 18.8 65.8 65 12.2 53.9
20:50 1019 30.09 848 25.04 18.6 65.5 66 12.1 53.8
20:55 1019 30.09 848 25.04 18.6 65.5 66 12.3 54.1
21:00 1019 30.09 848 25.04 18.5 65.2 67 12.2 54
21:05 1019 30.09 848 25.04 18.4 65.2 67 12.2 54
21:10 1019 30.09 848 25.04 18.4 65.1 67 12.2 54
21:15 1019 30.09 848 25.04 18.3 65 67 12.1 53.9
21:20 1019 30.09 848 25.04 18.3 65 67 12.1 53.7
21:25 1019 30.09 848 25.04 18.3 64.9 66 12 53.6
21:30 1019 30.09 848 25.04 18.3 64.9 67 12 53.6
21:35 1019 30.09 848 25.04 18.2 64.7 67 12 53.6
21:40 1019 30.09 848 25.04 18.2 64.7 66 11.9 53.4
21:45 1019 30.09 849 25.07 18.3 64.9 66 11.8 53.3
21:50 1020 30.12 849 25.07 18.3 64.9 65 11.8 53.2
21:55 1020 30.12 849 25.07 18.4 65.1 65 11.8 53.2
22:00 1020 30.12 849 25.07 18.3 65 65 11.8 53.3
22:05 1020 30.12 849 25.07 18.3 64.9 66 11.9 53.5
22:10 1020 30.12 849 25.07 18.3 65 65 11.8 53.3
22:15 1020 30.12 849 25.07 18.4 65 65 11.7 53.1
22:20 1020 30.12 849 25.07 18.4 65.1 67 12.2 53.9
22:25 1020 30.12 849 25.07 18.4 65.1 67 12.3 54.1
22:30 1020 30.12 849 25.07 18 64.5 68 12.1 53.7
22:35 1020 30.12 849 25.07 17.9 64.3 69 12.1 53.9
22:40 1020 30.12 849 25.07 17.8 64 69 12.2 53.9
22:45 1020 30.12 849 25.07 17.9 64.2 70 12.4 54.3
22:50 1020 30.12 849 25.07 17.8 64 70 12.3 54.2
22:55 1020 30.12 849 25.07 17.6 63.6 71 12.3 54.2
23:00 1020 30.12 849 25.07 17.5 63.5 72 12.4 54.4
23:05 1020 30.12 849 25.07 17.4 63.3 74 12.8 55
23:10 1020 30.12 849 25.07 17.4 63.3 75 12.9 55.2
23:15 1020 30.12 849 25.07 17.4 63.3 75 12.9 55.2
23:20 1020 30.12 849 25.07 17.4 63.3 75 12.9 55.2
23:25 1020 30.12 849 25.07 17.4 63.3 75 12.9 55.2
23:30 1020 30.12 849 25.07 17.4 63.3 75 12.9 55.2
23:35 1020 30.12 849 25.07 17.4 63.3 75 12.9 55.2
23:40 1020 30.12 849 25.07 17.2 63 74 12.7 54.8
23:45 1020 30.12 849 25.07 17.2 63 75 12.7 54.9
23:50 1020 30.12 850 25.1 17.4 63.3 75 12.9 55.1
23:55 1020 30.12 850 25.1 17.5 63.5 76 13.3 56
24:00 1020 30.12 850 25.1 17.3 63.1 79 13.6 56.5